sensor_id;sensor_type;location;lat;lon;timestamp;pressure;altitude;pressure_sealevel;temperature;humidity
11648;BME280;5880;52.342;9.662;2023-04-07T00:00:53;101013.44;;;11.39;31.66
11648;BME280;5880;52.342;9.662;2023-04-07T00:03:19;101004.84;;;11.35;31.80
11648;BME280;5880;52.342;9.662;2023-04-07T00:05:46;101000.91;;;11.31;31.75
11648;BME280;5880;52.342;9.662;2023-04-07T00:08:12;101002.19;;;11.29;31.68
11648;BME280;5880;52.342;9.662;2023-04-07T00:10:37;101006.44;;;11.25;31.88
11648;BME280;5880;52.342;9.662;2023-04-07T00:13:03;101009.03;;;11.19;32.00
11648;BME280;5880;52.342;9.662;2023-04-07T00:15:29;100997.31;;;11.12;31.60
11648;BME280;5880;52.342;9.662;2023-04-07T00:17:55;101007.81;;;11.15;31.78
11648;BME280;5880;52.342;9.662;2023-04-07T00:20:21;101002.81;;;11.12;32.12
11648;BME280;5880;52.342;9.662;2023-04-07T00:22:47;101000.97;;;11.06;32.03
11648;BME280;5880;52.342;9.662;2023-04-07T00:25:12;101005.34;;;11.07;31.99
11648;BME280;5880;52.342;9.662;2023-04-07T00:27:38;101004.16;;;11.03;32.14
11648;BME280;5880;52.342;9.662;2023-04-07T00:30:05;101008.19;;;11.01;32.18
11648;BME280;5880;52.342;9.662;2023-04-07T00:32:31;101006.75;;;10.98;31.99
11648;BME280;5880;52.342;9.662;2023-04-07T00:34:56;101000.88;;;10.94;31.97
11648;BME280;5880;52.342;9.662;2023-04-07T00:37:22;101001.69;;;10.95;32.07
11648;BME280;5880;52.342;9.662;2023-04-07T00:39:50;100998.34;;;10.93;32.26
11648;BME280;5880;52.342;9.662;2023-04-07T00:42:17;101004.28;;;10.90;32.19
11648;BME280;5880;52.342;9.662;2023-04-07T00:44:43;101003.03;;;10.86;32.38
11648;BME280;5880;52.342;9.662;2023-04-07T00:47:08;101001.59;;;10.83;32.35
11648;BME280;5880;52.342;9.662;2023-04-07T00:49:36;100994.91;;;10.79;32.41
11648;BME280;5880;52.342;9.662;2023-04-07T00:52:03;100994.47;;;10.82;32.13
11648;BME280;5880;52.342;9.662;2023-04-07T00:54:29;100991.50;;;10.84;32.45
11648;BME280;5880;52.342;9.662;2023-04-07T00:56:56;101002.44;;;10.84;32.61
11648;BME280;5880;52.342;9.662;2023-04-07T00:59:23;100994.22;;;10.84;32.24
11648;BME280;5880;52.342;9.662;2023-04-07T01:02:09;100999.69;;;10.84;32.24
11648;BME280;5880;52.342;9.662;2023-04-07T01:04:50;100993.03;;;10.80;32.29
11648;BME280;5880;52.342;9.662;2023-04-07T01:07:26;100991.59;;;10.77;32.50
11648;BME280;5880;52.342;9.662;2023-04-07T01:10:26;100995.56;;;10.74;32.28
11648;BME280;5880;52.342;9.662;2023-04-07T01:13:02;100991.03;;;10.68;32.33
11648;BME280;5880;52.342;9.662;2023-04-07T01:15:32;100990.63;;;10.65;32.39
11648;BME280;5880;52.342;9.662;2023-04-07T01:18:16;100986.69;;;10.61;32.36
11648;BME280;5880;52.342;9.662;2023-04-07T01:20:47;100995.75;;;10.54;32.60
11648;BME280;5880;52.342;9.662;2023-04-07T01:23:31;100985.50;;;10.50;32.64
11648;BME280;5880;52.342;9.662;2023-04-07T01:26:18;100986.56;;;10.49;32.74
11648;BME280;5880;52.342;9.662;2023-04-07T01:29:33;100988.69;;;10.47;32.60
11648;BME280;5880;52.342;9.662;2023-04-07T01:32:04;100991.84;;;10.44;32.70
11648;BME280;5880;52.342;9.662;2023-04-07T01:34:33;100987.44;;;10.43;32.70
11648;BME280;5880;52.342;9.662;2023-04-07T01:37:01;100984.94;;;10.41;32.83
11648;BME280;5880;52.342;9.662;2023-04-07T01:39:27;100980.97;;;10.37;32.86
11648;BME280;5880;52.342;9.662;2023-04-07T01:41:54;100988.72;;;10.40;32.92
11648;BME280;5880;52.342;9.662;2023-04-07T01:44:23;100984.09;;;10.41;32.72
11648;BME280;5880;52.342;9.662;2023-04-07T01:46:50;100990.41;;;10.41;32.69
11648;BME280;5880;52.342;9.662;2023-04-07T01:49:18;100992.31;;;10.41;32.82
11648;BME280;5880;52.342;9.662;2023-04-07T01:51:45;100986.00;;;10.40;32.69
11648;BME280;5880;52.342;9.662;2023-04-07T01:54:16;100981.38;;;10.41;32.79
11648;BME280;5880;52.342;9.662;2023-04-07T01:56:43;100987.91;;;10.40;32.96
11648;BME280;5880;52.342;9.662;2023-04-07T01:59:09;100982.66;;;10.38;32.87
11648;BME280;5880;52.342;9.662;2023-04-07T02:01:35;100987.28;;;10.38;32.95
11648;BME280;5880;52.342;9.662;2023-04-07T02:04:32;100983.94;;;10.35;32.97
11648;BME280;5880;52.342;9.662;2023-04-07T02:07:11;100982.25;;;10.34;32.92
11648;BME280;5880;52.342;9.662;2023-04-07T02:09:42;100981.03;;;10.30;32.82
11648;BME280;5880;52.342;9.662;2023-04-07T02:12:12;100983.78;;;10.30;32.93
11648;BME280;5880;52.342;9.662;2023-04-07T02:14:39;100985.88;;;10.28;32.81
11648;BME280;5880;52.342;9.662;2023-04-07T02:17:05;100978.69;;;10.27;32.88
11648;BME280;5880;52.342;9.662;2023-04-07T02:19:33;100982.94;;;10.23;32.90
11648;BME280;5880;52.342;9.662;2023-04-07T02:22:04;100987.56;;;10.23;32.89
11648;BME280;5880;52.342;9.662;2023-04-07T02:24:30;100984.44;;;10.19;32.98
11648;BME280;5880;52.342;9.662;2023-04-07T02:26:56;100990.13;;;10.18;32.86
11648;BME280;5880;52.342;9.662;2023-04-07T02:29:22;100990.34;;;10.16;32.86
11648;BME280;5880;52.342;9.662;2023-04-07T02:31:47;100985.09;;;10.14;32.91
11648;BME280;5880;52.342;9.662;2023-04-07T02:34:13;100981.34;;;10.09;32.97
11648;BME280;5880;52.342;9.662;2023-04-07T02:36:38;100986.59;;;10.10;33.09
11648;BME280;5880;52.342;9.662;2023-04-07T02:39:04;100994.78;;;10.10;33.14
11648;BME280;5880;52.342;9.662;2023-04-07T02:41:30;100980.97;;;10.05;33.06
11648;BME280;5880;52.342;9.662;2023-04-07T02:43:56;100988.72;;;10.08;33.14
11648;BME280;5880;52.342;9.662;2023-04-07T02:46:21;100999.88;;;10.07;33.09
11648;BME280;5880;52.342;9.662;2023-04-07T02:48:47;100993.53;;;10.06;33.09
11648;BME280;5880;52.342;9.662;2023-04-07T02:51:12;100992.72;;;10.06;33.26
11648;BME280;5880;52.342;9.662;2023-04-07T02:53:38;100990.44;;;10.03;33.19
11648;BME280;5880;52.342;9.662;2023-04-07T02:56:04;100989.81;;;10.01;33.21
11648;BME280;5880;52.342;9.662;2023-04-07T02:58:30;100995.06;;;10.02;33.23
11648;BME280;5880;52.342;9.662;2023-04-07T03:00:55;100991.72;;;10.00;33.14
11648;BME280;5880;52.342;9.662;2023-04-07T03:03:21;100989.19;;;9.99;33.18
11648;BME280;5880;52.342;9.662;2023-04-07T03:05:47;100985.84;;;9.97;33.29
11648;BME280;5880;52.342;9.662;2023-04-07T03:08:12;100984.41;;;9.94;33.30
11648;BME280;5880;52.342;9.662;2023-04-07T03:10:38;100988.19;;;9.93;33.37
11648;BME280;5880;52.342;9.662;2023-04-07T03:13:04;100985.66;;;9.91;33.30
11648;BME280;5880;52.342;9.662;2023-04-07T03:15:30;100978.97;;;9.87;33.26
11648;BME280;5880;52.342;9.662;2023-04-07T03:17:56;100979.00;;;9.81;33.45
11648;BME280;5880;52.342;9.662;2023-04-07T03:20:21;100970.63;;;9.76;33.19
11648;BME280;5880;52.342;9.662;2023-04-07T03:22:47;100978.44;;;9.72;33.49
11648;BME280;5880;52.342;9.662;2023-04-07T03:25:12;100980.31;;;9.71;33.39
11648;BME280;5880;52.342;9.662;2023-04-07T03:27:38;100990.81;;;9.75;33.43
11648;BME280;5880;52.342;9.662;2023-04-07T03:30:04;100976.97;;;9.69;33.42
11648;BME280;5880;52.342;9.662;2023-04-07T03:32:30;100982.84;;;9.66;33.29
11648;BME280;5880;52.342;9.662;2023-04-07T03:34:56;100980.78;;;9.62;33.56
11648;BME280;5880;52.342;9.662;2023-04-07T03:37:21;100980.41;;;9.58;33.70
11648;BME280;5880;52.342;9.662;2023-04-07T03:39:47;100987.94;;;9.56;33.63
11648;BME280;5880;52.342;9.662;2023-04-07T03:42:13;100992.34;;;9.57;33.67
11648;BME280;5880;52.342;9.662;2023-04-07T03:44:38;100991.13;;;9.53;33.63
11648;BME280;5880;52.342;9.662;2023-04-07T03:47:04;100987.78;;;9.51;33.76
11648;BME280;5880;52.342;9.662;2023-04-07T03:49:30;100992.59;;;9.49;33.59
11648;BME280;5880;52.342;9.662;2023-04-07T03:51:56;100993.63;;;9.48;33.70
11648;BME280;5880;52.342;9.662;2023-04-07T03:54:22;100983.78;;;9.47;33.66
11648;BME280;5880;52.342;9.662;2023-04-07T03:56:48;100993.03;;;9.46;33.97
11648;BME280;5880;52.342;9.662;2023-04-07T03:59:13;100993.88;;;9.46;33.80
11648;BME280;5880;52.342;9.662;2023-04-07T04:01:39;100998.25;;;9.47;33.79
11648;BME280;5880;52.342;9.662;2023-04-07T04:04:05;100991.16;;;9.46;33.88
11648;BME280;5880;52.342;9.662;2023-04-07T04:06:31;100993.03;;;9.46;33.87
11648;BME280;5880;52.342;9.662;2023-04-07T04:08:56;100999.34;;;9.46;33.87
11648;BME280;5880;52.342;9.662;2023-04-07T04:11:22;101002.91;;;9.47;33.74
11648;BME280;5880;52.342;9.662;2023-04-07T04:13:48;101001.22;;;9.46;33.87
11648;BME280;5880;52.342;9.662;2023-04-07T04:16:13;101011.28;;;9.45;33.91
11648;BME280;5880;52.342;9.662;2023-04-07T04:18:39;101003.75;;;9.41;33.86
11648;BME280;5880;52.342;9.662;2023-04-07T04:21:06;101003.53;;;9.42;34.08
11648;BME280;5880;52.342;9.662;2023-04-07T04:23:32;101012.56;;;9.43;34.06
11648;BME280;5880;52.342;9.662;2023-04-07T04:25:58;101010.25;;;9.40;33.96
11648;BME280;5880;52.342;9.662;2023-04-07T04:28:24;101012.16;;;9.39;34.00
11648;BME280;5880;52.342;9.662;2023-04-07T04:30:50;101012.38;;;9.38;34.24
11648;BME280;5880;52.342;9.662;2023-04-07T04:33:16;101013.44;;;9.37;33.96
11648;BME280;5880;52.342;9.662;2023-04-07T04:35:42;101009.84;;;9.36;34.22
11648;BME280;5880;52.342;9.662;2023-04-07T04:38:09;101018.47;;;9.33;33.97
11648;BME280;5880;52.342;9.662;2023-04-07T04:40:35;101019.09;;;9.28;34.16
11648;BME280;5880;52.342;9.662;2023-04-07T04:43:00;101025.22;;;9.24;33.82
11648;BME280;5880;52.342;9.662;2023-04-07T04:45:32;101022.91;;;9.21;34.18
11648;BME280;5880;52.342;9.662;2023-04-07T04:47:58;101034.25;;;9.18;33.93
11648;BME280;5880;52.342;9.662;2023-04-07T04:50:24;101033.00;;;9.14;33.84
11648;BME280;5880;52.342;9.662;2023-04-07T04:52:49;101029.84;;;9.10;33.95
11648;BME280;5880;52.342;9.662;2023-04-07T04:55:15;101036.78;;;9.06;34.26
11648;BME280;5880;52.342;9.662;2023-04-07T04:57:40;101030.91;;;9.02;34.02
11648;BME280;5880;52.342;9.662;2023-04-07T05:00:07;101034.28;;;8.98;34.11
11648;BME280;5880;52.342;9.662;2023-04-07T05:02:33;101030.53;;;8.92;34.44
11648;BME280;5880;52.342;9.662;2023-04-07T05:04:58;101043.09;;;8.93;34.05
11648;BME280;5880;52.342;9.662;2023-04-07T05:07:24;101045.38;;;8.90;33.99
11648;BME280;5880;52.342;9.662;2023-04-07T05:09:50;101045.81;;;8.86;34.56
11648;BME280;5880;52.342;9.662;2023-04-07T05:12:16;101040.59;;;8.85;34.21
11648;BME280;5880;52.342;9.662;2023-04-07T05:14:41;101047.28;;;8.82;34.28
11648;BME280;5880;52.342;9.662;2023-04-07T05:17:07;101044.16;;;8.79;34.20
11648;BME280;5880;52.342;9.662;2023-04-07T05:19:33;101049.59;;;8.79;34.29
11648;BME280;5880;52.342;9.662;2023-04-07T05:21:58;101045.19;;;8.78;34.53
11648;BME280;5880;52.342;9.662;2023-04-07T05:24:27;101052.34;;;8.79;34.53
11648;BME280;5880;52.342;9.662;2023-04-07T05:26:54;101048.78;;;8.78;34.71
11648;BME280;5880;52.342;9.662;2023-04-07T05:29:20;101057.78;;;8.79;34.92
11648;BME280;5880;52.342;9.662;2023-04-07T05:31:46;101044.16;;;8.79;34.95
11648;BME280;5880;52.342;9.662;2023-04-07T05:34:12;101045.81;;;8.80;34.97
11648;BME280;5880;52.342;9.662;2023-04-07T05:36:37;101046.44;;;8.82;35.07
11648;BME280;5880;52.342;9.662;2023-04-07T05:39:03;101045.19;;;8.84;34.99
11648;BME280;5880;52.342;9.662;2023-04-07T05:41:29;101049.81;;;8.84;35.42
11648;BME280;5880;52.342;9.662;2023-04-07T05:43:54;101057.56;;;8.94;35.11
11648;BME280;5880;52.342;9.662;2023-04-07T05:46:20;101055.03;;;8.99;35.18
11648;BME280;5880;52.342;9.662;2023-04-07T05:48:46;101046.00;;;9.05;35.63
11648;BME280;5880;52.342;9.662;2023-04-07T05:51:11;101048.31;;;9.08;35.53
11648;BME280;5880;52.342;9.662;2023-04-07T05:53:37;101060.28;;;9.20;35.67
11648;BME280;5880;52.342;9.662;2023-04-07T05:56:03;101061.09;;;9.27;35.82
11648;BME280;5880;52.342;9.662;2023-04-07T05:58:28;101061.69;;;9.36;35.68
11648;BME280;5880;52.342;9.662;2023-04-07T06:00:54;101058.75;;;9.44;35.87
11648;BME280;5880;52.342;9.662;2023-04-07T06:03:20;101059.56;;;9.51;35.94
11648;BME280;5880;52.342;9.662;2023-04-07T06:05:46;101057.44;;;9.60;35.96
11648;BME280;5880;52.342;9.662;2023-04-07T06:08:12;101059.06;;;9.68;35.97
11648;BME280;5880;52.342;9.662;2023-04-07T06:10:37;101066.41;;;9.74;36.33
11648;BME280;5880;52.342;9.662;2023-04-07T06:13:05;101069.31;;;9.86;36.62
11648;BME280;5880;52.342;9.662;2023-04-07T06:15:31;101064.81;;;10.05;37.16
11648;BME280;5880;52.342;9.662;2023-04-07T06:17:57;101077.84;;;10.41;37.60
11648;BME280;5880;52.342;9.662;2023-04-07T06:20:23;101065.56;;;10.82;38.22
11648;BME280;5880;52.342;9.662;2023-04-07T06:22:48;101080.41;;;11.36;38.54
11648;BME280;5880;52.342;9.662;2023-04-07T06:25:14;101077.47;;;11.93;38.47
11648;BME280;5880;52.342;9.662;2023-04-07T06:27:40;101080.69;;;12.51;38.59
11648;BME280;5880;52.342;9.662;2023-04-07T06:30:06;101078.16;;;13.03;38.48
11648;BME280;5880;52.342;9.662;2023-04-07T06:32:32;101089.97;;;13.62;38.47
11648;BME280;5880;52.342;9.662;2023-04-07T06:34:58;101085.97;;;14.22;38.08
11648;BME280;5880;52.342;9.662;2023-04-07T06:37:24;101083.97;;;14.75;37.59
11648;BME280;5880;52.342;9.662;2023-04-07T06:39:50;101087.03;;;15.29;37.25
11648;BME280;5880;52.342;9.662;2023-04-07T06:42:16;101097.13;;;15.79;36.97
11648;BME280;5880;52.342;9.662;2023-04-07T06:44:42;101099.13;;;16.33;36.65
11648;BME280;5880;52.342;9.662;2023-04-07T06:47:08;101095.44;;;16.77;35.96
11648;BME280;5880;52.342;9.662;2023-04-07T06:49:34;101098.94;;;16.99;34.93
11648;BME280;5880;52.342;9.662;2023-04-07T06:51:59;101097.97;;;17.16;34.79
11648;BME280;5880;52.342;9.662;2023-04-07T06:54:25;101089.56;;;17.33;34.52
11648;BME280;5880;52.342;9.662;2023-04-07T06:56:51;101107.34;;;17.52;34.09
11648;BME280;5880;52.342;9.662;2023-04-07T06:59:16;101110.16;;;17.62;33.26
11648;BME280;5880;52.342;9.662;2023-04-07T07:01:42;101102.09;;;17.50;32.66
11648;BME280;5880;52.342;9.662;2023-04-07T07:04:08;101111.97;;;17.41;32.51
11648;BME280;5880;52.342;9.662;2023-04-07T07:06:34;101108.59;;;17.34;32.23
11648;BME280;5880;52.342;9.662;2023-04-07T07:09:00;101111.91;;;17.31;32.29
11648;BME280;5880;52.342;9.662;2023-04-07T07:11:27;101107.78;;;17.34;32.33
11648;BME280;5880;52.342;9.662;2023-04-07T07:13:53;101111.97;;;17.41;32.21
11648;BME280;5880;52.342;9.662;2023-04-07T07:16:19;101105.41;;;17.52;32.04
11648;BME280;5880;52.342;9.662;2023-04-07T07:18:45;101101.63;;;17.64;32.12
11648;BME280;5880;52.342;9.662;2023-04-07T07:21:10;101108.31;;;17.73;31.72
11648;BME280;5880;52.342;9.662;2023-04-07T07:23:36;101112.47;;;17.76;31.58
11648;BME280;5880;52.342;9.662;2023-04-07T07:26:02;101124.97;;;17.88;31.75
11648;BME280;5880;52.342;9.662;2023-04-07T07:28:28;101122.63;;;18.18;32.09
11648;BME280;5880;52.342;9.662;2023-04-07T07:30:54;101130.78;;;18.60;32.12
11648;BME280;5880;52.342;9.662;2023-04-07T07:33:20;101130.00;;;18.95;31.80
11648;BME280;5880;52.342;9.662;2023-04-07T07:35:47;101128.09;;;19.11;31.19
11648;BME280;5880;52.342;9.662;2023-04-07T07:38:13;101123.34;;;19.17;31.06
11648;BME280;5880;52.342;9.662;2023-04-07T07:40:39;101133.63;;;19.32;31.26
11648;BME280;5880;52.342;9.662;2023-04-07T07:43:04;101129.66;;;19.64;31.19
11648;BME280;5880;52.342;9.662;2023-04-07T07:45:31;101129.06;;;19.97;31.20
11648;BME280;5880;52.342;9.662;2023-04-07T07:47:56;101128.94;;;20.23;30.64
11648;BME280;5880;52.342;9.662;2023-04-07T07:50:22;101121.94;;;20.36;30.00
11648;BME280;5880;52.342;9.662;2023-04-07T07:52:48;101130.81;;;20.38;29.55
11648;BME280;5880;52.342;9.662;2023-04-07T07:55:13;101125.56;;;20.31;28.93
11648;BME280;5880;52.342;9.662;2023-04-07T07:57:39;101137.81;;;20.20;28.62
11648;BME280;5880;52.342;9.662;2023-04-07T08:00:06;101133.47;;;19.98;28.34
11648;BME280;5880;52.342;9.662;2023-04-07T08:02:31;101142.16;;;19.71;28.01
11648;BME280;5880;52.342;9.662;2023-04-07T08:04:58;101138.31;;;19.47;28.25
11648;BME280;5880;52.342;9.662;2023-04-07T08:07:25;101140.00;;;19.27;28.56
11648;BME280;5880;52.342;9.662;2023-04-07T08:09:51;101142.47;;;19.18;28.62
11648;BME280;5880;52.342;9.662;2023-04-07T08:12:17;101143.59;;;19.12;28.92
11648;BME280;5880;52.342;9.662;2023-04-07T08:14:43;101143.84;;;19.06;29.03
11648;BME280;5880;52.342;9.662;2023-04-07T08:17:08;101147.19;;;19.23;29.18
11648;BME280;5880;52.342;9.662;2023-04-07T08:19:34;101145.50;;;19.53;29.21
11648;BME280;5880;52.342;9.662;2023-04-07T08:22:00;101150.44;;;19.87;29.06
11648;BME280;5880;52.342;9.662;2023-04-07T08:24:27;101143.91;;;20.27;28.57
11648;BME280;5880;52.342;9.662;2023-04-07T08:26:53;101151.56;;;20.56;28.99
11648;BME280;5880;52.342;9.662;2023-04-07T08:29:18;101146.50;;;20.68;28.31
11648;BME280;5880;52.342;9.662;2023-04-07T08:31:44;101151.72;;;20.75;28.07
11648;BME280;5880;52.342;9.662;2023-04-07T08:34:09;101151.19;;;20.73;27.23
11648;BME280;5880;52.342;9.662;2023-04-07T08:36:35;101154.59;;;20.54;27.30
11648;BME280;5880;52.342;9.662;2023-04-07T08:39:01;101155.28;;;20.31;27.17
11648;BME280;5880;52.342;9.662;2023-04-07T08:41:37;101146.81;;;19.96;27.07
11648;BME280;5880;52.342;9.662;2023-04-07T08:44:03;101149.09;;;19.58;26.88
11648;BME280;5880;52.342;9.662;2023-04-07T08:46:29;101150.78;;;19.29;26.73
11648;BME280;5880;52.342;9.662;2023-04-07T08:48:56;101155.75;;;18.96;26.68
11648;BME280;5880;52.342;9.662;2023-04-07T08:51:28;101154.88;;;18.75;26.81
11648;BME280;5880;52.342;9.662;2023-04-07T08:54:06;101157.91;;;18.63;26.83
11648;BME280;5880;52.342;9.662;2023-04-07T08:56:33;101160.38;;;18.54;26.93
11648;BME280;5880;52.342;9.662;2023-04-07T08:59:02;101164.78;;;18.45;26.92
11648;BME280;5880;52.342;9.662;2023-04-07T09:01:31;101170.25;;;18.30;26.75
11648;BME280;5880;52.342;9.662;2023-04-07T09:03:57;101167.47;;;18.25;27.02
11648;BME280;5880;52.342;9.662;2023-04-07T09:06:23;101173.00;;;18.25;26.71
11648;BME280;5880;52.342;9.662;2023-04-07T09:08:49;101168.31;;;18.25;27.09
11648;BME280;5880;52.342;9.662;2023-04-07T09:11:15;101163.66;;;18.36;27.38
11648;BME280;5880;52.342;9.662;2023-04-07T09:13:40;101164.53;;;18.57;27.55
11648;BME280;5880;52.342;9.662;2023-04-07T09:16:09;101162.69;;;18.83;27.29
11648;BME280;5880;52.342;9.662;2023-04-07T09:18:35;101165.75;;;19.12;27.20
11648;BME280;5880;52.342;9.662;2023-04-07T09:21:05;101170.19;;;19.39;26.77
11648;BME280;5880;52.342;9.662;2023-04-07T09:23:38;101167.09;;;19.66;26.88
11648;BME280;5880;52.342;9.662;2023-04-07T09:26:26;101166.47;;;20.05;26.54
11648;BME280;5880;52.342;9.662;2023-04-07T09:29:00;101169.13;;;20.36;26.48
11648;BME280;5880;52.342;9.662;2023-04-07T09:32:00;101170.91;;;20.71;26.86
11648;BME280;5880;52.342;9.662;2023-04-07T09:34:30;101168.59;;;20.89;26.03
11648;BME280;5880;52.342;9.662;2023-04-07T09:36:56;101167.72;;;20.93;25.71
11648;BME280;5880;52.342;9.662;2023-04-07T09:39:23;101169.63;;;20.98;25.42
11648;BME280;5880;52.342;9.662;2023-04-07T09:41:49;101161.53;;;21.01;25.70
11648;BME280;5880;52.342;9.662;2023-04-07T09:44:15;101158.44;;;21.08;25.56
11648;BME280;5880;52.342;9.662;2023-04-07T09:46:57;101157.13;;;21.29;25.69
11648;BME280;5880;52.342;9.662;2023-04-07T09:49:27;101159.97;;;21.59;25.26
11648;BME280;5880;52.342;9.662;2023-04-07T09:51:56;101170.16;;;21.92;25.24
11648;BME280;5880;52.342;9.662;2023-04-07T09:54:37;101157.03;;;22.22;24.58
11648;BME280;5880;52.342;9.662;2023-04-07T09:57:08;101161.03;;;22.35;23.71
11648;BME280;5880;52.342;9.662;2023-04-07T09:59:40;101165.53;;;22.31;22.95
11648;BME280;5880;52.342;9.662;2023-04-07T10:02:10;101171.56;;;22.14;23.45
11648;BME280;5880;52.342;9.662;2023-04-07T10:04:37;101167.84;;;22.00;23.56
11648;BME280;5880;52.342;9.662;2023-04-07T10:07:04;101163.31;;;21.85;23.66
11648;BME280;5880;52.342;9.662;2023-04-07T10:09:31;101162.81;;;21.78;24.04
11648;BME280;5880;52.342;9.662;2023-04-07T10:11:58;101153.13;;;21.75;23.91
11648;BME280;5880;52.342;9.662;2023-04-07T10:14:30;101163.50;;;21.64;23.24
11648;BME280;5880;52.342;9.662;2023-04-07T10:16:59;101155.97;;;21.36;23.19
11648;BME280;5880;52.342;9.662;2023-04-07T10:19:25;101152.59;;;21.10;23.33
11648;BME280;5880;52.342;9.662;2023-04-07T10:21:56;101166.09;;;20.87;23.59
11648;BME280;5880;52.342;9.662;2023-04-07T10:24:48;101157.56;;;20.73;22.96
11648;BME280;5880;52.342;9.662;2023-04-07T10:27:21;101169.59;;;20.48;23.03
11648;BME280;5880;52.342;9.662;2023-04-07T10:29:51;101173.88;;;20.30;23.25
11648;BME280;5880;52.342;9.662;2023-04-07T10:32:17;101170.91;;;20.11;23.26
11648;BME280;5880;52.342;9.662;2023-04-07T10:37:16;101172.38;;;19.63;23.66
11648;BME280;5880;52.342;9.662;2023-04-07T10:39:46;101172.66;;;19.40;23.80
11648;BME280;5880;52.342;9.662;2023-04-07T10:45:07;101169.09;;;19.04;24.16
11648;BME280;5880;52.342;9.662;2023-04-07T10:47:34;101170.44;;;18.91;24.47
11648;BME280;5880;52.342;9.662;2023-04-07T10:50:23;101175.97;;;18.86;24.64
11648;BME280;5880;52.342;9.662;2023-04-07T10:53:09;101179.00;;;18.80;24.49
11648;BME280;5880;52.342;9.662;2023-04-07T10:55:44;101175.06;;;18.70;24.51
11648;BME280;5880;52.342;9.662;2023-04-07T10:58:27;101177.81;;;18.55;24.22
11648;BME280;5880;52.342;9.662;2023-04-07T11:03:40;101174.97;;;18.34;24.62
11648;BME280;5880;52.342;9.662;2023-04-07T11:06:09;101173.28;;;18.28;24.83
11648;BME280;5880;52.342;9.662;2023-04-07T11:08:39;101168.84;;;18.22;24.78
11648;BME280;5880;52.342;9.662;2023-04-07T11:11:06;101180.16;;;18.16;24.92
11648;BME280;5880;52.342;9.662;2023-04-07T11:13:47;101172.13;;;18.14;25.08
11648;BME280;5880;52.342;9.662;2023-04-07T11:16:19;101169.66;;;18.12;24.99
11648;BME280;5880;52.342;9.662;2023-04-07T11:18:58;101154.97;;;18.12;25.22
11648;BME280;5880;52.342;9.662;2023-04-07T11:21:24;101163.00;;;18.13;25.06
11648;BME280;5880;52.342;9.662;2023-04-07T11:23:50;101162.75;;;18.15;25.24
11648;BME280;5880;52.342;9.662;2023-04-07T11:26:15;101172.13;;;18.14;25.23
11648;BME280;5880;52.342;9.662;2023-04-07T11:28:50;101159.97;;;18.15;25.43
11648;BME280;5880;52.342;9.662;2023-04-07T11:31:30;101160.53;;;18.17;25.45
11648;BME280;5880;52.342;9.662;2023-04-07T11:34:04;101160.78;;;18.16;25.38
11648;BME280;5880;52.342;9.662;2023-04-07T11:36:37;101161.63;;;18.16;25.52
11648;BME280;5880;52.342;9.662;2023-04-07T11:39:04;101175.44;;;18.11;25.26
11648;BME280;5880;52.342;9.662;2023-04-07T11:41:43;101164.03;;;18.02;25.17
11648;BME280;5880;52.342;9.662;2023-04-07T11:44:11;101174.53;;;18.00;25.51
11648;BME280;5880;52.342;9.662;2023-04-07T11:46:59;101169.00;;;18.00;25.43
11648;BME280;5880;52.342;9.662;2023-04-07T11:49:26;101170.38;;;17.98;25.48
11648;BME280;5880;52.342;9.662;2023-04-07T11:52:02;101163.47;;;17.95;25.30
11648;BME280;5880;52.342;9.662;2023-04-07T11:54:44;101159.84;;;17.89;25.67
11648;BME280;5880;52.342;9.662;2023-04-07T11:57:28;101167.84;;;17.91;25.69
11648;BME280;5880;52.342;9.662;2023-04-07T12:00:11;101162.31;;;17.91;25.64
11648;BME280;5880;52.342;9.662;2023-04-07T12:02:38;101160.94;;;17.88;25.71
11648;BME280;5880;52.342;9.662;2023-04-07T12:05:05;101169.22;;;17.88;25.94
11648;BME280;5880;52.342;9.662;2023-04-07T12:07:31;101174.75;;;17.88;25.25
11648;BME280;5880;52.342;9.662;2023-04-07T12:09:57;101173.91;;;17.83;25.30
11648;BME280;5880;52.342;9.662;2023-04-07T12:12:28;101171.66;;;17.80;25.40
11648;BME280;5880;52.342;9.662;2023-04-07T12:14:55;101171.91;;;17.78;25.16
11648;BME280;5880;52.342;9.662;2023-04-07T12:17:25;101178.78;;;17.70;25.05
11648;BME280;5880;52.342;9.662;2023-04-07T12:19:52;101170.47;;;17.65;24.96
11648;BME280;5880;52.342;9.662;2023-04-07T12:22:18;101179.28;;;17.62;24.74
11648;BME280;5880;52.342;9.662;2023-04-07T12:24:44;101181.19;;;17.62;25.27
11648;BME280;5880;52.342;9.662;2023-04-07T12:27:10;101174.56;;;17.63;25.29
11648;BME280;5880;52.342;9.662;2023-04-07T12:29:36;101174.06;;;17.66;25.29
11648;BME280;5880;52.342;9.662;2023-04-07T12:32:04;101174.91;;;17.71;25.36
11648;BME280;5880;52.342;9.662;2023-04-07T12:34:29;101165.25;;;17.74;25.35
11648;BME280;5880;52.342;9.662;2023-04-07T12:36:55;101177.78;;;17.82;25.46
11648;BME280;5880;52.342;9.662;2023-04-07T12:39:21;101170.59;;;17.86;25.55
11648;BME280;5880;52.342;9.662;2023-04-07T12:41:46;101177.25;;;17.85;25.33
11648;BME280;5880;52.342;9.662;2023-04-07T12:44:15;101178.06;;;17.85;25.48
11648;BME280;5880;52.342;9.662;2023-04-07T12:46:41;101170.03;;;17.84;25.66
11648;BME280;5880;52.342;9.662;2023-04-07T12:49:07;101180.03;;;17.90;25.71
11648;BME280;5880;52.342;9.662;2023-04-07T12:51:33;101173.69;;;17.95;25.69
11648;BME280;5880;52.342;9.662;2023-04-07T12:53:59;101176.19;;;17.96;25.79
11648;BME280;5880;52.342;9.662;2023-04-07T12:56:26;101177.59;;;17.99;25.81
11648;BME280;5880;52.342;9.662;2023-04-07T12:58:53;101176.78;;;18.03;25.15
11648;BME280;5880;52.342;9.662;2023-04-07T13:01:20;101188.69;;;18.04;25.40
11648;BME280;5880;52.342;9.662;2023-04-07T13:03:46;101177.63;;;18.04;25.61
11648;BME280;5880;52.342;9.662;2023-04-07T13:06:12;101183.72;;;18.06;25.42
11648;BME280;5880;52.342;9.662;2023-04-07T13:08:38;101179.00;;;18.06;25.15
11648;BME280;5880;52.342;9.662;2023-04-07T13:11:05;101178.19;;;18.06;25.33
11648;BME280;5880;52.342;9.662;2023-04-07T13:13:31;101170.16;;;18.04;25.23
11648;BME280;5880;52.342;9.662;2023-04-07T13:15:57;101167.09;;;18.01;25.17